sensor_id;sensor_type;location;lat;lon;timestamp;P1;durP1;ratioP1;P2;durP2;ratioP2
76852;SDS011;65825;52.232;10.566;2024-03-02T00:00:20;20.35;;;11.02;;
76852;SDS011;65825;52.232;10.566;2024-03-02T00:02:46;18.58;;;10.02;;
76852;SDS011;65825;52.232;10.566;2024-03-02T00:05:13;25.13;;;11.10;;
76852;SDS011;65825;52.232;10.566;2024-03-02T00:07:44;22.83;;;10.32;;
76852;SDS011;65825;52.232;10.566;2024-03-02T00:10:11;19.52;;;10.40;;
76852;SDS011;65825;52.232;10.566;2024-03-02T00:12:41;22.23;;;10.43;;
76852;SDS011;65825;52.232;10.566;2024-03-02T00:15:07;23.13;;;10.85;;
76852;SDS011;65825;52.232;10.566;2024-03-02T00:17:42;19.90;;;10.55;;
76852;SDS011;65825;52.232;10.566;2024-03-02T00:20:08;20.23;;;10.10;;
76852;SDS011;65825;52.232;10.566;2024-03-02T00:22:35;20.05;;;10.50;;
76852;SDS011;65825;52.232;10.566;2024-03-02T00:25:02;20.73;;;10.00;;
76852;SDS011;65825;52.232;10.566;2024-03-02T00:27:28;21.35;;;10.65;;
76852;SDS011;65825;52.232;10.566;2024-03-02T00:29:54;21.75;;;10.68;;
76852;SDS011;65825;52.232;10.566;2024-03-02T00:32:19;21.33;;;10.60;;
76852;SDS011;65825;52.232;10.566;2024-03-02T00:34:44;22.63;;;11.10;;
76852;SDS011;65825;52.232;10.566;2024-03-02T00:37:09;20.10;;;11.43;;
76852;SDS011;65825;52.232;10.566;2024-03-02T00:39:36;22.77;;;10.95;;
76852;SDS011;65825;52.232;10.566;2024-03-02T00:42:02;20.65;;;11.70;;
76852;SDS011;65825;52.232;10.566;2024-03-02T00:44:27;19.65;;;10.75;;
76852;SDS011;65825;52.232;10.566;2024-03-02T00:46:59;24.23;;;11.57;;
76852;SDS011;65825;52.232;10.566;2024-03-02T00:49:24;21.95;;;10.93;;
76852;SDS011;65825;52.232;10.566;2024-03-02T00:51:51;22.58;;;10.70;;
76852;SDS011;65825;52.232;10.566;2024-03-02T00:54:22;23.27;;;11.75;;
76852;SDS011;65825;52.232;10.566;2024-03-02T00:56:50;25.63;;;11.25;;
76852;SDS011;65825;52.232;10.566;2024-03-02T00:59:16;19.30;;;10.95;;
76852;SDS011;65825;52.232;10.566;2024-03-02T01:01:42;23.00;;;11.07;;
76852;SDS011;65825;52.232;10.566;2024-03-02T01:04:07;25.65;;;11.55;;
76852;SDS011;65825;52.232;10.566;2024-03-02T01:06:33;25.90;;;12.38;;
76852;SDS011;65825;52.232;10.566;2024-03-02T01:08:59;24.15;;;10.73;;
76852;SDS011;65825;52.232;10.566;2024-03-02T01:11:24;21.57;;;10.87;;
76852;SDS011;65825;52.232;10.566;2024-03-02T01:13:50;24.83;;;12.17;;
76852;SDS011;65825;52.232;10.566;2024-03-02T01:16:16;23.58;;;11.32;;
76852;SDS011;65825;52.232;10.566;2024-03-02T01:18:42;21.20;;;11.10;;
76852;SDS011;65825;52.232;10.566;2024-03-02T01:21:07;27.47;;;12.23;;
76852;SDS011;65825;52.232;10.566;2024-03-02T01:23:32;26.17;;;12.50;;
76852;SDS011;65825;52.232;10.566;2024-03-02T01:25:58;25.70;;;13.27;;
76852;SDS011;65825;52.232;10.566;2024-03-02T01:28:23;22.40;;;11.30;;
76852;SDS011;65825;52.232;10.566;2024-03-02T01:30:48;26.50;;;12.83;;
76852;SDS011;65825;52.232;10.566;2024-03-02T01:33:14;25.17;;;12.43;;
76852;SDS011;65825;52.232;10.566;2024-03-02T01:35:40;20.75;;;11.75;;
76852;SDS011;65825;52.232;10.566;2024-03-02T01:38:05;22.43;;;12.03;;
76852;SDS011;65825;52.232;10.566;2024-03-02T01:40:32;26.08;;;13.07;;
76852;SDS011;65825;52.232;10.566;2024-03-02T01:42:58;26.85;;;13.05;;
76852;SDS011;65825;52.232;10.566;2024-03-02T01:45:24;26.70;;;12.03;;
76852;SDS011;65825;52.232;10.566;2024-03-02T01:47:49;26.10;;;11.60;;
76852;SDS011;65825;52.232;10.566;2024-03-02T01:50:14;24.90;;;12.27;;
76852;SDS011;65825;52.232;10.566;2024-03-02T01:52:40;22.70;;;12.00;;
76852;SDS011;65825;52.232;10.566;2024-03-02T01:55:06;24.42;;;11.88;;
76852;SDS011;65825;52.232;10.566;2024-03-02T01:57:32;24.50;;;12.48;;
76852;SDS011;65825;52.232;10.566;2024-03-02T01:59:58;23.35;;;11.55;;
76852;SDS011;65825;52.232;10.566;2024-03-02T02:02:25;24.27;;;11.98;;
76852;SDS011;65825;52.232;10.566;2024-03-02T02:04:50;24.67;;;12.13;;
76852;SDS011;65825;52.232;10.566;2024-03-02T02:07:15;25.60;;;12.90;;
76852;SDS011;65825;52.232;10.566;2024-03-02T02:09:41;25.93;;;12.17;;
76852;SDS011;65825;52.232;10.566;2024-03-02T02:12:07;25.35;;;12.55;;
76852;SDS011;65825;52.232;10.566;2024-03-02T02:14:32;26.88;;;12.65;;
76852;SDS011;65825;52.232;10.566;2024-03-02T02:16:58;22.67;;;11.75;;
76852;SDS011;65825;52.232;10.566;2024-03-02T02:19:23;25.20;;;13.13;;
76852;SDS011;65825;52.232;10.566;2024-03-02T02:21:48;24.87;;;13.40;;
76852;SDS011;65825;52.232;10.566;2024-03-02T02:24:14;26.13;;;12.00;;
76852;SDS011;65825;52.232;10.566;2024-03-02T02:26:39;23.70;;;12.07;;
76852;SDS011;65825;52.232;10.566;2024-03-02T02:29:04;25.93;;;11.87;;
76852;SDS011;65825;52.232;10.566;2024-03-02T02:31:39;23.97;;;12.57;;
76852;SDS011;65825;52.232;10.566;2024-03-02T02:34:05;26.35;;;14.43;;
76852;SDS011;65825;52.232;10.566;2024-03-02T02:36:31;22.95;;;11.52;;
76852;SDS011;65825;52.232;10.566;2024-03-02T02:38:57;26.52;;;12.32;;
76852;SDS011;65825;52.232;10.566;2024-03-02T02:41:28;25.25;;;12.07;;
76852;SDS011;65825;52.232;10.566;2024-03-02T02:43:53;25.60;;;12.20;;
76852;SDS011;65825;52.232;10.566;2024-03-02T02:46:18;23.80;;;11.87;;
76852;SDS011;65825;52.232;10.566;2024-03-02T02:48:43;25.40;;;12.10;;
76852;SDS011;65825;52.232;10.566;2024-03-02T02:51:09;27.45;;;12.98;;
76852;SDS011;65825;52.232;10.566;2024-03-02T02:53:34;25.73;;;12.90;;
76852;SDS011;65825;52.232;10.566;2024-03-02T02:56:00;26.35;;;11.82;;
76852;SDS011;65825;52.232;10.566;2024-03-02T02:58:25;24.90;;;12.77;;
76852;SDS011;65825;52.232;10.566;2024-03-02T03:00:51;26.03;;;12.60;;
76852;SDS011;65825;52.232;10.566;2024-03-02T03:03:16;28.50;;;14.57;;
76852;SDS011;65825;52.232;10.566;2024-03-02T03:05:41;25.87;;;12.87;;
76852;SDS011;65825;52.232;10.566;2024-03-02T03:08:06;24.70;;;12.27;;
76852;SDS011;65825;52.232;10.566;2024-03-02T03:10:32;26.47;;;13.97;;
76852;SDS011;65825;52.232;10.566;2024-03-02T03:12:58;28.60;;;13.93;;
76852;SDS011;65825;52.232;10.566;2024-03-02T03:15:23;30.60;;;14.47;;
76852;SDS011;65825;52.232;10.566;2024-03-02T03:17:48;29.73;;;12.67;;
76852;SDS011;65825;52.232;10.566;2024-03-02T03:20:13;25.90;;;13.30;;
76852;SDS011;65825;52.232;10.566;2024-03-02T03:22:40;24.45;;;12.98;;
76852;SDS011;65825;52.232;10.566;2024-03-02T03:25:05;27.05;;;13.90;;
76852;SDS011;65825;52.232;10.566;2024-03-02T03:27:33;30.63;;;13.93;;
76852;SDS011;65825;52.232;10.566;2024-03-02T03:29:58;28.57;;;12.90;;
76852;SDS011;65825;52.232;10.566;2024-03-02T03:32:23;28.57;;;13.93;;
76852;SDS011;65825;52.232;10.566;2024-03-02T03:34:48;28.20;;;13.27;;
76852;SDS011;65825;52.232;10.566;2024-03-02T03:37:14;27.00;;;13.77;;
76852;SDS011;65825;52.232;10.566;2024-03-02T03:39:40;26.27;;;12.68;;
76852;SDS011;65825;52.232;10.566;2024-03-02T03:42:05;24.23;;;13.37;;
76852;SDS011;65825;52.232;10.566;2024-03-02T03:44:31;27.33;;;12.18;;
76852;SDS011;65825;52.232;10.566;2024-03-02T03:46:56;24.57;;;12.17;;
76852;SDS011;65825;52.232;10.566;2024-03-02T03:49:21;24.90;;;12.13;;
76852;SDS011;65825;52.232;10.566;2024-03-02T03:51:47;24.17;;;12.40;;
76852;SDS011;65825;52.232;10.566;2024-03-02T03:54:12;23.57;;;12.10;;
76852;SDS011;65825;52.232;10.566;2024-03-02T03:56:37;26.13;;;13.27;;
76852;SDS011;65825;52.232;10.566;2024-03-02T03:59:03;24.17;;;13.38;;
76852;SDS011;65825;52.232;10.566;2024-03-02T04:01:29;24.65;;;12.27;;
76852;SDS011;65825;52.232;10.566;2024-03-02T04:03:54;24.23;;;12.57;;
76852;SDS011;65825;52.232;10.566;2024-03-02T04:06:20;28.13;;;13.23;;
76852;SDS011;65825;52.232;10.566;2024-03-02T04:08:45;20.80;;;10.63;;
76852;SDS011;65825;52.232;10.566;2024-03-02T04:11:10;27.03;;;12.73;;
76852;SDS011;65825;52.232;10.566;2024-03-02T04:13:35;24.87;;;11.93;;
76852;SDS011;65825;52.232;10.566;2024-03-02T04:16:01;23.87;;;11.93;;
76852;SDS011;65825;52.232;10.566;2024-03-02T04:18:26;25.60;;;12.90;;
76852;SDS011;65825;52.232;10.566;2024-03-02T04:20:51;26.43;;;12.10;;
76852;SDS011;65825;52.232;10.566;2024-03-02T04:23:16;27.93;;;12.43;;
76852;SDS011;65825;52.232;10.566;2024-03-02T04:25:42;26.83;;;12.43;;
76852;SDS011;65825;52.232;10.566;2024-03-02T04:28:07;24.63;;;12.70;;
76852;SDS011;65825;52.232;10.566;2024-03-02T04:30:32;24.37;;;12.03;;
76852;SDS011;65825;52.232;10.566;2024-03-02T04:32:58;23.70;;;11.80;;
76852;SDS011;65825;52.232;10.566;2024-03-02T04:35:23;25.40;;;11.80;;
76852;SDS011;65825;52.232;10.566;2024-03-02T04:37:48;23.13;;;12.05;;
76852;SDS011;65825;52.232;10.566;2024-03-02T04:40:14;22.00;;;11.87;;
76852;SDS011;65825;52.232;10.566;2024-03-02T04:42:39;22.53;;;11.57;;
76852;SDS011;65825;52.232;10.566;2024-03-02T04:45:05;24.08;;;11.45;;
76852;SDS011;65825;52.232;10.566;2024-03-02T04:47:30;22.58;;;11.43;;
76852;SDS011;65825;52.232;10.566;2024-03-02T04:49:56;25.27;;;13.83;;
76852;SDS011;65825;52.232;10.566;2024-03-02T04:52:21;26.90;;;14.33;;
76852;SDS011;65825;52.232;10.566;2024-03-02T04:54:46;25.13;;;13.03;;
76852;SDS011;65825;52.232;10.566;2024-03-02T04:57:30;23.00;;;11.40;;
76852;SDS011;65825;52.232;10.566;2024-03-02T04:59:55;24.17;;;12.53;;
76852;SDS011;65825;52.232;10.566;2024-03-02T05:02:20;22.63;;;11.73;;
76852;SDS011;65825;52.232;10.566;2024-03-02T05:04:45;25.20;;;12.97;;
76852;SDS011;65825;52.232;10.566;2024-03-02T05:07:11;25.40;;;12.27;;
76852;SDS011;65825;52.232;10.566;2024-03-02T05:09:36;28.60;;;12.60;;
76852;SDS011;65825;52.232;10.566;2024-03-02T05:12:01;26.83;;;12.77;;
76852;SDS011;65825;52.232;10.566;2024-03-02T05:14:29;26.38;;;12.68;;
76852;SDS011;65825;52.232;10.566;2024-03-02T05:16:54;24.70;;;13.10;;
76852;SDS011;65825;52.232;10.566;2024-03-02T05:19:20;24.67;;;13.57;;
76852;SDS011;65825;52.232;10.566;2024-03-02T05:21:45;26.23;;;14.60;;
76852;SDS011;65825;52.232;10.566;2024-03-02T05:24:10;27.27;;;13.83;;
76852;SDS011;65825;52.232;10.566;2024-03-02T05:26:36;26.07;;;13.23;;
76852;SDS011;65825;52.232;10.566;2024-03-02T05:29:01;32.07;;;14.77;;
76852;SDS011;65825;52.232;10.566;2024-03-02T05:31:27;26.98;;;15.35;;
76852;SDS011;65825;52.232;10.566;2024-03-02T05:33:53;28.73;;;14.27;;
76852;SDS011;65825;52.232;10.566;2024-03-02T05:36:18;28.73;;;14.95;;
76852;SDS011;65825;52.232;10.566;2024-03-02T05:38:45;31.38;;;15.27;;
76852;SDS011;65825;52.232;10.566;2024-03-02T05:41:10;32.77;;;14.00;;
76852;SDS011;65825;52.232;10.566;2024-03-02T05:43:36;28.20;;;13.40;;
76852;SDS011;65825;52.232;10.566;2024-03-02T05:46:02;27.73;;;14.17;;
76852;SDS011;65825;52.232;10.566;2024-03-02T05:48:27;28.80;;;13.93;;
76852;SDS011;65825;52.232;10.566;2024-03-02T05:50:52;26.40;;;13.57;;
76852;SDS011;65825;52.232;10.566;2024-03-02T05:53:17;28.57;;;13.63;;
76852;SDS011;65825;52.232;10.566;2024-03-02T05:55:43;25.43;;;13.13;;
76852;SDS011;65825;52.232;10.566;2024-03-02T05:58:10;30.88;;;13.70;;
76852;SDS011;65825;52.232;10.566;2024-03-02T06:00:53;29.92;;;13.77;;
76852;SDS011;65825;52.232;10.566;2024-03-02T06:03:19;31.33;;;14.90;;
76852;SDS011;65825;52.232;10.566;2024-03-02T06:05:44;27.10;;;13.37;;
76852;SDS011;65825;52.232;10.566;2024-03-02T06:08:10;32.67;;;15.20;;
76852;SDS011;65825;52.232;10.566;2024-03-02T06:10:35;31.33;;;14.17;;
76852;SDS011;65825;52.232;10.566;2024-03-02T06:13:00;31.10;;;16.47;;
76852;SDS011;65825;52.232;10.566;2024-03-02T06:15:25;29.97;;;15.10;;
76852;SDS011;65825;52.232;10.566;2024-03-02T06:17:51;33.40;;;15.50;;
76852;SDS011;65825;52.232;10.566;2024-03-02T06:20:16;34.47;;;15.87;;
76852;SDS011;65825;52.232;10.566;2024-03-02T06:22:41;32.67;;;14.93;;
76852;SDS011;65825;52.232;10.566;2024-03-02T06:25:06;36.50;;;16.10;;
76852;SDS011;65825;52.232;10.566;2024-03-02T06:27:32;29.63;;;15.88;;
76852;SDS011;65825;52.232;10.566;2024-03-02T06:29:57;29.30;;;14.63;;
76852;SDS011;65825;52.232;10.566;2024-03-02T06:32:22;31.07;;;14.43;;
76852;SDS011;65825;52.232;10.566;2024-03-02T06:37:15;28.23;;;13.90;;
76852;SDS011;65825;52.232;10.566;2024-03-02T06:39:41;25.02;;;12.65;;
76852;SDS011;65825;52.232;10.566;2024-03-02T06:42:06;30.10;;;14.53;;
76852;SDS011;65825;52.232;10.566;2024-03-02T06:44:31;29.43;;;14.90;;
76852;SDS011;65825;52.232;10.566;2024-03-02T06:46:56;26.70;;;13.23;;
76852;SDS011;65825;52.232;10.566;2024-03-02T06:49:21;27.77;;;12.90;;
76852;SDS011;65825;52.232;10.566;2024-03-02T06:51:47;28.70;;;14.37;;
76852;SDS011;65825;52.232;10.566;2024-03-02T06:54:12;28.10;;;13.93;;
76852;SDS011;65825;52.232;10.566;2024-03-02T06:56:37;23.73;;;12.27;;
76852;SDS011;65825;52.232;10.566;2024-03-02T06:59:04;28.58;;;13.20;;
76852;SDS011;65825;52.232;10.566;2024-03-02T07:01:29;31.58;;;16.05;;
76852;SDS011;65825;52.232;10.566;2024-03-02T07:03:54;26.63;;;14.30;;
76852;SDS011;65825;52.232;10.566;2024-03-02T07:06:19;24.47;;;13.60;;
76852;SDS011;65825;52.232;10.566;2024-03-02T07:08:45;25.43;;;13.37;;
76852;SDS011;65825;52.232;10.566;2024-03-02T07:11:10;29.47;;;14.37;;
76852;SDS011;65825;52.232;10.566;2024-03-02T07:13:35;24.40;;;12.87;;
76852;SDS011;65825;52.232;10.566;2024-03-02T07:16:00;28.67;;;14.37;;
76852;SDS011;65825;52.232;10.566;2024-03-02T07:18:29;32.38;;;14.35;;
76852;SDS011;65825;52.232;10.566;2024-03-02T07:20:55;31.45;;;14.77;;
76852;SDS011;65825;52.232;10.566;2024-03-02T07:23:23;25.63;;;13.98;;
76852;SDS011;65825;52.232;10.566;2024-03-02T07:25:52;24.83;;;13.52;;
76852;SDS011;65825;52.232;10.566;2024-03-02T07:28:19;36.80;;;15.68;;
76852;SDS011;65825;52.232;10.566;2024-03-02T07:30:44;30.90;;;15.18;;
76852;SDS011;65825;52.232;10.566;2024-03-02T07:33:10;30.30;;;13.83;;
76852;SDS011;65825;52.232;10.566;2024-03-02T07:35:35;32.72;;;14.98;;
76852;SDS011;65825;52.232;10.566;2024-03-02T07:38:01;30.00;;;15.00;;
76852;SDS011;65825;52.232;10.566;2024-03-02T07:40:26;32.40;;;15.25;;
76852;SDS011;65825;52.232;10.566;2024-03-02T07:42:51;33.20;;;14.60;;
76852;SDS011;65825;52.232;10.566;2024-03-02T07:45:17;28.10;;;14.97;;
76852;SDS011;65825;52.232;10.566;2024-03-02T07:47:42;28.33;;;14.10;;
76852;SDS011;65825;52.232;10.566;2024-03-02T07:50:07;32.87;;;14.80;;
76852;SDS011;65825;52.232;10.566;2024-03-02T07:52:33;29.35;;;15.15;;
76852;SDS011;65825;52.232;10.566;2024-03-02T07:54:58;31.13;;;15.88;;
76852;SDS011;65825;52.232;10.566;2024-03-02T07:57:24;30.23;;;14.60;;
76852;SDS011;65825;52.232;10.566;2024-03-02T07:59:49;28.42;;;14.10;;
76852;SDS011;65825;52.232;10.566;2024-03-02T08:02:15;31.03;;;15.87;;
76852;SDS011;65825;52.232;10.566;2024-03-02T08:04:40;32.03;;;17.48;;
76852;SDS011;65825;52.232;10.566;2024-03-02T08:07:06;26.98;;;13.90;;
76852;SDS011;65825;52.232;10.566;2024-03-02T08:09:31;27.63;;;14.25;;
76852;SDS011;65825;52.232;10.566;2024-03-02T08:11:57;29.10;;;14.37;;
76852;SDS011;65825;52.232;10.566;2024-03-02T08:14:23;29.17;;;14.98;;
76852;SDS011;65825;52.232;10.566;2024-03-02T08:16:48;27.90;;;14.53;;
76852;SDS011;65825;52.232;10.566;2024-03-02T08:19:13;27.10;;;12.77;;
76852;SDS011;65825;52.232;10.566;2024-03-02T08:21:39;27.47;;;13.40;;
76852;SDS011;65825;52.232;10.566;2024-03-02T08:24:04;26.37;;;13.27;;
76852;SDS011;65825;52.232;10.566;2024-03-02T08:26:29;25.38;;;13.70;;
76852;SDS011;65825;52.232;10.566;2024-03-02T08:28:57;30.67;;;14.40;;
76852;SDS011;65825;52.232;10.566;2024-03-02T08:31:23;25.42;;;13.57;;
76852;SDS011;65825;52.232;10.566;2024-03-02T08:33:48;24.23;;;13.83;;
76852;SDS011;65825;52.232;10.566;2024-03-02T08:36:13;25.23;;;12.50;;
76852;SDS011;65825;52.232;10.566;2024-03-02T08:38:38;22.80;;;12.27;;
76852;SDS011;65825;52.232;10.566;2024-03-02T08:41:04;22.13;;;11.97;;
76852;SDS011;65825;52.232;10.566;2024-03-02T08:43:29;22.75;;;11.98;;
76852;SDS011;65825;52.232;10.566;2024-03-02T08:45:55;32.58;;;14.43;;
76852;SDS011;65825;52.232;10.566;2024-03-02T08:48:20;27.73;;;12.23;;
76852;SDS011;65825;52.232;10.566;2024-03-02T08:50:46;22.20;;;11.93;;
76852;SDS011;65825;52.232;10.566;2024-03-02T08:53:11;25.20;;;11.88;;
76852;SDS011;65825;52.232;10.566;2024-03-02T08:55:36;22.67;;;12.00;;
76852;SDS011;65825;52.232;10.566;2024-03-02T08:58:02;24.73;;;12.23;;
76852;SDS011;65825;52.232;10.566;2024-03-02T09:00:27;26.27;;;12.67;;
76852;SDS011;65825;52.232;10.566;2024-03-02T09:02:52;22.93;;;11.73;;
76852;SDS011;65825;52.232;10.566;2024-03-02T09:05:17;24.80;;;13.07;;
76852;SDS011;65825;52.232;10.566;2024-03-02T09:07:43;24.73;;;12.87;;
76852;SDS011;65825;52.232;10.566;2024-03-02T09:10:08;24.50;;;12.67;;
76852;SDS011;65825;52.232;10.566;2024-03-02T09:12:34;27.10;;;12.98;;
76852;SDS011;65825;52.232;10.566;2024-03-02T09:15:00;23.00;;;12.85;;
76852;SDS011;65825;52.232;10.566;2024-03-02T09:17:26;26.45;;;14.48;;
76852;SDS011;65825;52.232;10.566;2024-03-02T09:19:51;24.90;;;12.75;;
76852;SDS011;65825;52.232;10.566;2024-03-02T09:22:17;23.52;;;12.43;;
76852;SDS011;65825;52.232;10.566;2024-03-02T09:24:43;25.42;;;12.50;;
76852;SDS011;65825;52.232;10.566;2024-03-02T09:27:08;23.37;;;13.07;;
76852;SDS011;65825;52.232;10.566;2024-03-02T09:29:33;23.37;;;12.57;;
76852;SDS011;65825;52.232;10.566;2024-03-02T09:31:59;24.80;;;13.17;;
76852;SDS011;65825;52.232;10.566;2024-03-02T09:34:24;22.63;;;12.60;;
76852;SDS011;65825;52.232;10.566;2024-03-02T09:36:50;25.93;;;13.73;;
76852;SDS011;65825;52.232;10.566;2024-03-02T09:41:42;22.58;;;11.70;;
76852;SDS011;65825;52.232;10.566;2024-03-02T09:44:08;23.30;;;11.30;;
76852;SDS011;65825;52.232;10.566;2024-03-02T09:46:33;22.30;;;11.87;;
76852;SDS011;65825;52.232;10.566;2024-03-02T09:49:00;27.02;;;12.60;;
76852;SDS011;65825;52.232;10.566;2024-03-02T09:51:25;24.77;;;12.63;;
76852;SDS011;65825;52.232;10.566;2024-03-02T09:53:51;22.90;;;12.18;;
76852;SDS011;65825;52.232;10.566;2024-03-02T09:56:16;20.67;;;11.50;;
76852;SDS011;65825;52.232;10.566;2024-03-02T09:58:43;24.48;;;11.45;;
76852;SDS011;65825;52.232;10.566;2024-03-02T10:01:10;23.35;;;13.32;;
76852;SDS011;65825;52.232;10.566;2024-03-02T10:03:36;22.10;;;12.30;;
76852;SDS011;65825;52.232;10.566;2024-03-02T10:06:21;23.33;;;13.10;;
76852;SDS011;65825;52.232;10.566;2024-03-02T10:08:50;24.00;;;12.40;;
76852;SDS011;65825;52.232;10.566;2024-03-02T10:11:31;26.23;;;13.75;;
76852;SDS011;65825;52.232;10.566;2024-03-02T10:16:34;24.48;;;13.15;;
76852;SDS011;65825;52.232;10.566;2024-03-02T10:19:14;21.27;;;12.70;;
76852;SDS011;65825;52.232;10.566;2024-03-02T10:21:43;24.10;;;12.95;;
76852;SDS011;65825;52.232;10.566;2024-03-02T10:24:09;23.35;;;12.30;;
76852;SDS011;65825;52.232;10.566;2024-03-02T10:26:35;24.90;;;14.27;;
76852;SDS011;65825;52.232;10.566;2024-03-02T10:29:00;25.20;;;12.77;;
76852;SDS011;65825;52.232;10.566;2024-03-02T10:31:25;23.03;;;11.40;;
76852;SDS011;65825;52.232;10.566;2024-03-02T10:33:56;24.20;;;12.48;;
76852;SDS011;65825;52.232;10.566;2024-03-02T10:36:22;25.55;;;12.82;;
76852;SDS011;65825;52.232;10.566;2024-03-02T10:38:48;23.80;;;12.23;;
76852;SDS011;65825;52.232;10.566;2024-03-02T10:41:19;23.02;;;13.68;;
76852;SDS011;65825;52.232;10.566;2024-03-02T10:43:48;24.55;;;12.82;;
76852;SDS011;65825;52.232;10.566;2024-03-02T10:46:16;25.08;;;13.05;;
76852;SDS011;65825;52.232;10.566;2024-03-02T10:48:44;22.35;;;12.85;;
76852;SDS011;65825;52.232;10.566;2024-03-02T10:51:11;22.25;;;12.65;;
76852;SDS011;65825;52.232;10.566;2024-03-02T10:53:36;19.65;;;11.68;;
76852;SDS011;65825;52.232;10.566;2024-03-02T10:56:02;21.15;;;11.63;;
76852;SDS011;65825;52.232;10.566;2024-03-02T10:58:32;19.45;;;10.82;;
76852;SDS011;65825;52.232;10.566;2024-03-02T11:01:03;22.88;;;11.25;;
76852;SDS011;65825;52.232;10.566;2024-03-02T11:03:33;21.70;;;11.90;;
76852;SDS011;65825;52.232;10.566;2024-03-02T11:06:00;20.92;;;11.98;;
76852;SDS011;65825;52.232;10.566;2024-03-02T11:08:31;21.75;;;12.07;;
76852;SDS011;65825;52.232;10.566;2024-03-02T11:10:58;23.10;;;13.48;;
76852;SDS011;65825;52.232;10.566;2024-03-02T11:13:35;21.50;;;12.70;;
76852;SDS011;65825;52.232;10.566;2024-03-02T11:16:04;21.48;;;12.95;;
76852;SDS011;65825;52.232;10.566;2024-03-02T11:18:35;21.77;;;11.75;;
76852;SDS011;65825;52.232;10.566;2024-03-02T11:21:01;18.52;;;10.70;;
76852;SDS011;65825;52.232;10.566;2024-03-02T11:23:31;20.73;;;10.43;;
76852;SDS011;65825;52.232;10.566;2024-03-02T11:28:43;21.00;;;11.32;;
76852;SDS011;65825;52.232;10.566;2024-03-02T11:31:08;19.43;;;10.93;;
76852;SDS011;65825;52.232;10.566;2024-03-02T11:33:33;22.27;;;11.60;;
76852;SDS011;65825;52.232;10.566;2024-03-02T11:35:59;21.80;;;11.00;;
76852;SDS011;65825;52.232;10.566;2024-03-02T11:38:27;21.85;;;12.15;;
76852;SDS011;65825;52.232;10.566;2024-03-02T11:40:53;18.65;;;10.45;;
76852;SDS011;65825;52.232;10.566;2024-03-02T11:43:18;15.83;;;9.50;;
76852;SDS011;65825;52.232;10.566;2024-03-02T11:45:44;18.35;;;10.18;;
76852;SDS011;65825;52.232;10.566;2024-03-02T11:48:10;18.35;;;9.80;;
76852;SDS011;65825;52.232;10.566;2024-03-02T11:50:49;19.45;;;9.77;;
76852;SDS011;65825;52.232;10.566;2024-03-02T11:53:15;18.10;;;8.98;;
76852;SDS011;65825;52.232;10.566;2024-03-02T11:55:40;17.75;;;8.85;;
76852;SDS011;65825;52.232;10.566;2024-03-02T11:58:11;16.48;;;9.32;;
76852;SDS011;65825;52.232;10.566;2024-03-02T12:00:37;17.45;;;9.45;;
76852;SDS011;65825;52.232;10.566;2024-03-02T12:03:06;19.05;;;9.73;;
76852;SDS011;65825;52.232;10.566;2024-03-02T12:05:32;17.65;;;8.80;;
76852;SDS011;65825;52.232;10.566;2024-03-02T12:07:58;17.10;;;9.27;;
76852;SDS011;65825;52.232;10.566;2024-03-02T12:10:25;15.55;;;8.77;;
76852;SDS011;65825;52.232;10.566;2024-03-02T12:13:01;14.77;;;9.27;;
76852;SDS011;65825;52.232;10.566;2024-03-02T12:15:32;15.98;;;8.85;;
76852;SDS011;65825;52.232;10.566;2024-03-02T12:18:00;16.40;;;8.07;;
76852;SDS011;65825;52.232;10.566;2024-03-02T12:20:28;15.95;;;7.93;;
76852;SDS011;65825;52.232;10.566;2024-03-02T12:22:55;16.65;;;8.13;;
76852;SDS011;65825;52.232;10.566;2024-03-02T12:25:23;15.57;;;8.23;;
76852;SDS011;65825;52.232;10.566;2024-03-02T12:27:50;14.98;;;8.77;;
76852;SDS011;65825;52.232;10.566;2024-03-02T12:30:16;13.73;;;8.05;;
76852;SDS011;65825;52.232;10.566;2024-03-02T12:32:43;12.73;;;6.50;;
76852;SDS011;65825;52.232;10.566;2024-03-02T12:35:10;13.63;;;6.88;;
76852;SDS011;65825;52.232;10.566;2024-03-02T12:37:43;11.48;;;7.03;;
76852;SDS011;65825;52.232;10.566;2024-03-02T12:40:16;13.02;;;7.68;;
76852;SDS011;65825;52.232;10.566;2024-03-02T12:42:43;13.02;;;7.80;;
76852;SDS011;65825;52.232;10.566;2024-03-02T12:45:08;12.68;;;7.85;;
76852;SDS011;65825;52.232;10.566;2024-03-02T12:47:35;11.65;;;6.57;;
76852;SDS011;65825;52.232;10.566;2024-03-02T12:50:00;10.73;;;6.60;;
76852;SDS011;65825;52.232;10.566;2024-03-02T12:52:27;9.93;;;6.50;;
76852;SDS011;65825;52.232;10.566;2024-03-02T12:54:52;10.73;;;6.63;;
76852;SDS011;65825;52.232;10.566;2024-03-02T12:57:24;13.07;;;7.43;;
76852;SDS011;65825;52.232;10.566;2024-03-02T12:59:50;12.57;;;6.70;;
76852;SDS011;65825;52.232;10.566;2024-03-02T13:02:19;10.10;;;5.70;;
76852;SDS011;65825;52.232;10.566;2024-03-02T13:04:51;9.68;;;5.60;;
76852;SDS011;65825;52.232;10.566;2024-03-02T13:07:17;7.22;;;4.68;;
76852;SDS011;65825;52.232;10.566;2024-03-02T13:09:44;8.98;;;5.07;;
76852;SDS011;65825;52.232;10.566;2024-03-02T13:12:11;9.15;;;5.57;;
76852;SDS011;65825;52.232;10.566;2024-03-02T13:14:36;11.30;;;6.00;;
76852;SDS011;65825;52.232;10.566;2024-03-02T13:17:01;9.97;;;5.33;;
76852;SDS011;65825;52.232;10.566;2024-03-02T13:19:30;9.38;;;5.53;;
76852;SDS011;65825;52.232;10.566;2024-03-02T13:21:55;7.90;;;5.43;;
76852;SDS011;65825;52.232;10.566;2024-03-02T13:24:22;7.40;;;5.47;;
76852;SDS011;65825;52.232;10.566;2024-03-02T13:26:50;9.10;;;5.05;;
76852;SDS011;65825;52.232;10.566;2024-03-02T13:29:20;10.93;;;5.45;;
76852;SDS011;65825;52.232;10.566;2024-03-02T13:31:46;9.73;;;4.53;;
76852;SDS011;65825;52.232;10.566;2024-03-02T13:34:11;5.72;;;3.95;;
76852;SDS011;65825;52.232;10.566;2024-03-02T13:36:37;6.53;;;3.97;;
76852;SDS011;65825;52.232;10.566;2024-03-02T13:39:03;8.73;;;5.65;;
76852;SDS011;65825;52.232;10.566;2024-03-02T13:41:30;8.95;;;4.95;;
76852;SDS011;65825;52.232;10.566;2024-03-02T13:43:55;7.87;;;5.03;;
76852;SDS011;65825;52.232;10.566;2024-03-02T13:46:20;8.85;;;5.03;;
76852;SDS011;65825;52.232;10.566;2024-03-02T13:48:46;7.30;;;4.40;;
76852;SDS011;65825;52.232;10.566;2024-03-02T13:51:12;7.80;;;4.40;;
76852;SDS011;65825;52.232;10.566;2024-03-02T13:53:37;5.97;;;3.83;;
76852;SDS011;65825;52.232;10.566;2024-03-02T13:56:02;7.17;;;4.63;;
76852;SDS011;65825;52.232;10.566;2024-03-02T13:58:28;8.35;;;5.05;;
76852;SDS011;65825;52.232;10.566;2024-03-02T14:00:53;10.10;;;5.70;;
76852;SDS011;65825;52.232;10.566;2024-03-02T14:03:18;10.93;;;4.97;;
76852;SDS011;65825;52.232;10.566;2024-03-02T14:05:44;9.90;;;5.10;;
76852;SDS011;65825;52.232;10.566;2024-03-02T14:08:11;9.63;;;4.88;;
76852;SDS011;65825;52.232;10.566;2024-03-02T14:10:36;7.93;;;5.40;;
76852;SDS011;65825;52.232;10.566;2024-03-02T14:13:01;9.07;;;4.97;;
76852;SDS011;65825;52.232;10.566;2024-03-02T14:15:26;8.93;;;4.73;;